Time;durP1;ratioP1;P1;durP2;ratioP2;P2;SDS_P1;SDS_P2;PMS_P1;PMS_P2;Temp;Humidity;BMP_temperature;BMP_pressure;BME280_temperature;BME280_humidity;BME280_pressure;Samples;Min_cycle;Max_cycle;Signal;HPM_P1;HPM_P2
2023/01/08 00:01:53;;;;;;;3.50;3.20;;;;;;;8.70;100.00;100193.59;5028127;28;20424;-64
2023/01/08 00:04:19;;;;;;;3.58;2.80;;;;;;;8.71;100.00;100184.13;5028564;28;20075;-64
2023/01/08 00:06:44;;;;;;;3.72;2.55;;;;;;;8.70;100.00;100192.72;5028476;28;20466;-64
2023/01/08 00:09:10;;;;;;;3.15;2.60;;;;;;;8.71;100.00;100191.88;5028263;28;20517;-65
2023/01/08 00:11:36;;;;;;;4.10;2.53;;;;;;;8.70;100.00;100192.72;5028497;28;20505;-64
2023/01/08 00:14:01;;;;;;;5.63;2.50;;;;;;;8.68;100.00;100199.53;5027900;28;20127;-64
2023/01/08 00:16:27;;;;;;;5.00;2.55;;;;;;;8.69;100.00;100198.72;5028224;28;20385;-64
2023/01/08 00:18:52;;;;;;;3.42;2.80;;;;;;;8.70;100.00;100203.03;5028223;28;20534;-64
2023/01/08 00:21:17;;;;;;;4.55;2.28;;;;;;;8.72;100.00;100196.22;5027747;28;20029;-64
2023/01/08 00:23:43;;;;;;;5.65;2.47;;;;;;;8.71;100.00;100202.19;5027691;28;20021;-64
2023/01/08 00:26:09;;;;;;;5.03;2.80;;;;;;;8.71;100.00;100189.28;5027995;28;20133;-64
2023/01/08 00:28:35;;;;;;;4.22;2.72;;;;;;;8.71;100.00;100189.28;5028327;28;20385;-64
2023/01/08 00:31:05;;;;;;;4.68;2.67;;;;;;;8.76;100.00;100191.16;5027260;28;20443;-64
2023/01/08 00:33:31;;;;;;;3.42;2.35;;;;;;;8.78;100.00;100173.13;5027981;28;20322;-64
2023/01/08 00:35:56;;;;;;;7.03;3.00;;;;;;;8.79;100.00;100180.06;5027710;28;20104;-64
2023/01/08 00:38:28;;;;;;;2.72;2.20;;;;;;;8.79;100.00;100172.31;5027756;28;20448;-65
2023/01/08 00:40:54;;;;;;;2.72;2.33;;;;;;;8.82;100.00;100163.75;5027908;28;20025;-64
2023/01/08 00:43:19;;;;;;;4.88;2.75;;;;;;;8.83;100.00;100166.38;5028064;28;20025;-64
2023/01/08 00:45:45;;;;;;;4.05;2.35;;;;;;;8.82;100.00;100161.19;5027835;28;20022;-64
2023/01/08 00:48:10;;;;;;;3.63;2.42;;;;;;;8.80;100.00;100149.91;5027853;28;20079;-64
2023/01/08 00:50:35;;;;;;;4.50;2.45;;;;;;;8.80;100.00;100155.97;5027826;28;20029;-64
2023/01/08 00:53:02;;;;;;;3.75;2.55;;;;;;;8.80;100.00;100143.06;5027652;28;20052;-64
2023/01/08 00:55:27;;;;;;;6.53;2.45;;;;;;;8.83;100.00;100148.28;5027912;28;20529;-64
2023/01/08 00:57:53;;;;;;;4.18;2.30;;;;;;;8.81;100.00;100150.00;5027855;28;20095;-65
2023/01/08 01:00:18;;;;;;;5.75;3.38;;;;;;;8.81;100.00;100146.53;5028087;28;20041;-64
2023/01/08 01:02:44;;;;;;;3.90;2.33;;;;;;;8.80;100.00;100139.59;5027515;28;20037;-65
2023/01/08 01:05:14;;;;;;;3.58;2.40;;;;;;;8.78;100.00;100144.72;5027185;28;20017;-64
2023/01/08 01:07:39;;;;;;;4.47;2.35;;;;;;;8.77;100.00;100145.56;5027608;28;20180;-64
2023/01/08 01:10:05;;;;;;;4.10;2.03;;;;;;;8.74;100.00;100135.16;5027521;28;20024;-65
2023/01/08 01:12:30;;;;;;;3.38;2.53;;;;;;;8.72;100.00;100136.81;5027067;28;20459;-64
2023/01/08 01:14:56;;;;;;;4.03;2.35;;;;;;;8.74;100.00;100133.41;5027329;28;20084;-64
2023/01/08 01:17:21;;;;;;;4.20;2.50;;;;;;;8.75;100.00;100131.72;5027537;28;20109;-64
2023/01/08 01:19:46;;;;;;;3.95;2.40;;;;;;;8.82;100.00;100131.06;5027418;28;20489;-64
2023/01/08 01:22:12;;;;;;;3.65;2.22;;;;;;;8.79;100.00;100125.81;5027313;28;20017;-64
2023/01/08 01:24:37;;;;;;;3.67;2.17;;;;;;;8.79;100.00;100128.41;5027398;28;20083;-64
2023/01/08 01:27:02;;;;;;;4.53;2.10;;;;;;;8.81;100.00;100128.44;5027053;28;20037;-65
2023/01/08 01:29:28;;;;;;;4.10;2.58;;;;;;;8.82;100.00;100131.06;5027343;28;20087;-64
2023/01/08 01:31:53;;;;;;;3.10;2.05;;;;;;;8.83;100.00;100119.03;5027128;28;20026;-64
2023/01/08 01:34:18;;;;;;;3.80;2.22;;;;;;;8.79;100.00;100115.47;5026854;28;20075;-64
2023/01/08 01:36:44;;;;;;;4.93;2.10;;;;;;;8.82;100.00;100119.84;5027466;28;20045;-64
2023/01/08 01:39:09;;;;;;;4.60;2.40;;;;;;;8.79;100.00;100130.97;5027517;28;20091;-64
2023/01/08 01:41:41;;;;;;;4.88;2.25;;;;;;;8.83;100.00;100122.47;5027054;28;20120;-65
2023/01/08 01:44:25;;;;;;;;;;;;;;;8.86;100.00;100126.84;5027594;28;20049;-64
2023/01/08 01:46:50;;;;;;;4.47;2.20;;;;;;;8.84;100.00;100134.56;5026703;28;19924;-64
2023/01/08 01:49:21;;;;;;;4.35;2.33;;;;;;;8.84;100.00;100138.84;5026845;28;20413;-64
2023/01/08 01:51:49;;;;;;;;;;;;;;;8.86;100.00;100143.25;5027520;28;20033;-64
2023/01/08 01:54:16;;;;;;;3.78;2.60;;;;;;;8.83;100.00;100150.88;5026312;28;20335;-64
2023/01/08 01:56:43;;;;;;;3.40;1.90;;;;;;;8.73;100.00;100149.75;5027096;28;20041;-65
2023/01/08 01:59:09;;;;;;;4.70;2.22;;;;;;;8.60;100.00;100164.03;5027173;28;20064;-64
2023/01/08 02:01:35;;;;;;;3.28;2.00;;;;;;;8.51;100.00;100161.13;5027069;28;20036;-64
2023/01/08 02:04:00;;;;;;;2.83;1.70;;;;;;;8.36;100.00;100159.88;5026742;28;20025;-64
2023/01/08 02:07:11;;;;;;;2.35;1.67;;;;;;;8.18;100.00;100157.59;5026927;28;20052;-64
2023/01/08 02:09:58;;;;;;;3.13;1.35;;;;;;;8.04;100.00;100157.16;4926756;29;20448;-64
2023/01/08 02:12:32;;;;;;;2.67;1.17;;;;;;;7.87;100.00;100151.44;5026844;28;20419;-64
2023/01/08 02:15:20;;;;;;;2.53;1.30;;;;;;;7.82;100.00;100143.56;5026627;28;20029;-64
2023/01/08 02:17:56;;;;;;;5.10;1.42;;;;;;;7.72;100.00;100131.22;5027126;28;20374;-64
2023/01/08 02:20:38;;;;;;;5.10;1.75;;;;;;;7.58;100.00;100136.78;5026530;28;20049;-64
2023/01/08 02:23:09;;;;;;;;;;;;;;;7.52;100.00;100131.44;5027359;28;20326;-64
2023/01/08 02:25:53;;;;;;;3.55;0.88;;;;;;;7.48;100.00;100127.88;5026502;28;19917;-64
2023/01/08 02:28:19;;;;;;;3.95;0.70;;;;;;;7.40;100.00;100113.84;5026628;28;20064;-64
2023/01/08 02:30:46;;;;;;;4.32;0.95;;;;;;;7.35;100.00;100110.25;5026176;28;20105;-64
2023/01/08 02:33:11;;;;;;;4.43;0.80;;;;;;;7.32;100.00;100116.19;5026717;28;20401;-64
2023/01/08 02:36:14;;;;;;;5.05;1.00;;;;;;;7.29;100.00;100116.06;5026615;28;20026;-64
2023/01/08 02:38:52;;;;;;;6.85;1.23;;;;;;;7.23;100.00;100121.03;5025958;28;20025;-64
2023/01/08 02:41:23;;;;;;;2.10;0.70;;;;;;;7.20;100.00;100114.03;5026579;28;20022;-64
2023/01/08 02:43:52;;;;;;;2.72;0.70;;;;;;;7.18;100.00;100119.16;5026480;28;20474;-64
2023/01/08 02:46:24;;;;;;;2.63;0.90;;;;;;;7.12;100.00;100118.06;5029849;28;20382;-64
2023/01/08 02:49:11;;;;;;;2.80;0.95;;;;;;;7.08;100.00;100101.63;5030177;28;20056;-64
2023/01/08 02:51:41;;;;;;;1.70;0.80;;;;;;;7.06;100.00;100118.72;5029556;28;20048;-63
2023/01/08 02:54:12;;;;;;;1.98;0.68;;;;;;;7.04;100.00;100110.06;5029852;28;20124;-64
2023/01/08 02:56:45;;;;;;;2.30;0.88;;;;;;;7.01;100.00;100110.84;5030232;28;20037;-64
2023/01/08 02:59:13;;;;;;;3.10;0.98;;;;;;;6.97;100.00;100109.88;5029766;28;20129;-64
2023/01/08 03:01:40;;;;;;;2.80;0.65;;;;;;;6.95;100.00;100108.94;5029458;28;20529;-64
2023/01/08 03:04:11;;;;;;;5.13;0.90;;;;;;;6.93;100.00;100108.00;5029827;28;20025;-64
2023/01/08 03:06:37;;;;;;;4.82;0.90;;;;;;;6.90;100.00;100100.16;5030033;28;20099;-65
2023/01/08 03:09:04;;;;;;;3.58;1.00;;;;;;;6.89;100.00;100089.81;5030329;28;20461;-64
2023/01/08 03:11:36;;;;;;;3.85;1.75;;;;;;;6.88;100.00;100094.06;5029988;28;20032;-64
2023/01/08 03:14:10;;;;;;;6.43;0.90;;;;;;;6.88;100.00;100093.19;5029282;28;20437;-64
2023/01/08 03:16:36;;;;;;;4.32;0.90;;;;;;;6.85;100.00;100088.81;5029696;28;20028;-64
2023/01/08 03:19:13;;;;;;;3.15;0.70;;;;;;;6.82;100.00;100089.59;5029775;28;20041;-64
2023/01/08 03:21:41;;;;;;;2.20;0.70;;;;;;;6.82;100.00;100083.53;5029620;28;20075;-64
2023/01/08 03:24:08;;;;;;;1.65;0.60;;;;;;;6.81;100.00;100089.53;5029418;28;20053;-63
2023/01/08 03:26:37;;;;;;;3.03;0.90;;;;;;;6.81;100.00;100092.09;5029026;28;20438;-64
2023/01/08 03:29:05;;;;;;;3.58;1.20;;;;;;;6.83;100.00;100090.47;5029687;28;20375;-64
2023/01/08 03:31:34;;;;;;;2.78;0.90;;;;;;;6.81;100.00;100089.53;5029155;28;20211;-64
2023/01/08 03:34:02;;;;;;;1.83;0.60;;;;;;;6.79;100.00;100083.44;5029477;28;20037;-64
2023/01/08 03:36:29;;;;;;;2.50;1.00;;;;;;;6.80;100.00;100087.78;5029249;28;20033;-64
2023/01/08 03:39:00;;;;;;;6.40;0.90;;;;;;;6.80;100.00;100090.38;5028558;28;20124;-64
2023/01/08 03:41:29;;;;;;;4.05;1.00;;;;;;;6.77;100.00;100077.34;5028506;28;20029;-64
2023/01/08 03:43:55;;;;;;;6.97;1.33;;;;;;;6.78;100.00;100077.41;5027777;28;20545;-64
2023/01/08 03:46:28;;;;;;;3.67;1.05;;;;;;;6.79;100.00;100073.16;5028951;28;20071;-64
2023/01/08 03:48:55;;;;;;;4.80;0.98;;;;;;;6.77;100.00;100070.53;5028851;28;20033;-63
2023/01/08 03:51:20;;;;;;;7.68;1.25;;;;;;;6.79;100.00;100080.88;5028732;28;20551;-63
2023/01/08 03:53:46;;;;;;;2.53;1.10;;;;;;;6.78;100.00;100081.72;5028505;28;20049;-64
2023/01/08 03:56:12;;;;;;;3.42;0.88;;;;;;;6.79;100.00;100086.03;5028199;28;20074;-64
2023/01/08 03:58:37;;;;;;;6.28;0.85;;;;;;;6.78;100.00;100067.09;5028969;28;20025;-63
2023/01/08 04:01:02;;;;;;;2.80;0.93;;;;;;;6.82;100.00;100073.25;5028655;28;20623;-64
2023/01/08 04:03:27;;;;;;;4.75;1.48;;;;;;;6.80;100.00;100070.63;5028873;28;20029;-64
2023/01/08 04:05:53;;;;;;;2.67;0.93;;;;;;;6.80;100.00;100064.63;5028245;28;20083;-64
2023/01/08 04:08:18;;;;;;;5.03;0.90;;;;;;;6.79;100.00;100058.56;5028695;28;20038;-64
2023/01/08 04:10:43;;;;;;;3.90;1.52;;;;;;;6.77;100.00;100059.34;5028957;28;20469;-64
2023/01/08 04:13:08;;;;;;;2.15;0.95;;;;;;;6.79;100.00;100062.84;5028440;28;20029;-64
2023/01/08 04:15:34;;;;;;;2.53;0.98;;;;;;;6.79;100.00;100052.53;5028149;28;20031;-64
2023/01/08 04:17:59;;;;;;;5.15;1.60;;;;;;;6.80;100.00;100049.16;5028191;28;20056;-64
2023/01/08 04:20:24;;;;;;;5.10;1.63;;;;;;;6.79;100.00;100039.66;5028676;28;20082;-64
2023/01/08 04:22:49;;;;;;;3.08;1.13;;;;;;;6.83;100.00;100033.81;5028013;28;20397;-64
2023/01/08 04:25:15;;;;;;;4.63;1.65;;;;;;;6.83;100.00;100033.81;5028456;28;20025;-64
2023/01/08 04:27:40;;;;;;;4.68;1.52;;;;;;;6.82;100.00;100048.38;5028109;28;20021;-63
2023/01/08 04:30:06;;;;;;;5.55;1.83;;;;;;;6.87;100.00;100051.13;5027765;28;20026;-64
2023/01/08 04:32:31;;;;;;;6.95;1.88;;;;;;;6.89;100.00;100048.59;5028181;28;20025;-64
2023/01/08 04:34:57;;;;;;;2.88;1.45;;;;;;;6.92;100.00;100043.53;5028226;28;20421;-64
2023/01/08 04:37:22;;;;;;;5.63;1.60;;;;;;;6.93;100.00;100034.97;5026740;28;20109;-64
2023/01/08 04:39:47;;;;;;;7.20;2.05;;;;;;;6.93;100.00;100038.44;5027546;28;20381;-64
2023/01/08 04:42:12;;;;;;;7.20;1.90;;;;;;;6.94;100.00;100032.44;5028100;28;20020;-64
2023/01/08 04:44:38;;;;;;;3.83;1.58;;;;;;;6.94;100.00;100035.03;5028238;28;20462;-64
2023/01/08 04:47:03;;;;;;;4.68;1.83;;;;;;;6.97;100.00;100037.72;5027709;28;20068;-64
2023/01/08 04:49:28;;;;;;;6.22;1.83;;;;;;;6.95;100.00;100034.22;5027595;28;20025;-64
2023/01/08 04:51:53;;;;;;;4.90;1.88;;;;;;;6.96;100.00;100029.97;5027903;28;20025;-64
2023/01/08 04:54:19;;;;;;;4.65;1.75;;;;;;;6.97;100.00;100036.84;5027913;28;20093;-64
2023/01/08 04:56:44;;;;;;;4.15;1.88;;;;;;;6.99;100.00;100047.19;5027699;28;20014;-64
2023/01/08 04:59:09;;;;;;;3.10;2.00;;;;;;;6.97;100.00;100044.56;5027753;28;20021;-64
2023/01/08 05:01:36;;;;;;;3.60;1.30;;;;;;;6.94;100.00;100042.75;5027870;28;20067;-64
2023/01/08 05:04:04;;;;;;;3.35;1.10;;;;;;;6.93;100.00;100046.16;5027376;28;20030;-64
2023/01/08 05:06:30;;;;;;;3.08;0.90;;;;;;;6.90;100.00;100035.78;5027643;28;20055;-63
2023/01/08 05:08:56;;;;;;;3.60;0.98;;;;;;;6.93;100.00;100034.97;5027610;28;20052;-64
2023/01/08 05:11:22;;;;;;;2.58;1.10;;;;;;;6.96;100.00;100042.84;5027208;28;20656;-64
2023/01/08 05:13:48;;;;;;;2.78;0.90;;;;;;;6.93;100.00;100046.16;5027729;28;20040;-64
2023/01/08 05:16:14;;;;;;;2.78;1.27;;;;;;;6.91;100.00;100034.94;5027471;28;20048;-64
2023/01/08 05:18:39;;;;;;;0.77;0.50;;;;;;;6.90;100.00;100037.47;5027253;28;20529;-63
2023/01/08 05:21:05;;;;;;;2.08;0.55;;;;;;;6.90;100.00;100048.66;5027609;28;20103;-64
2023/01/08 05:23:31;;;;;;;1.92;0.80;;;;;;;6.90;100.00;100045.19;5026985;28;20551;-64
2023/01/08 05:25:57;;;;;;;1.80;0.65;;;;;;;6.90;100.00;100051.22;5027409;28;20379;-64
2023/01/08 05:28:23;;;;;;;1.10;0.70;;;;;;;6.90;100.00;100042.63;5027387;28;20088;-64
2023/01/08 05:30:48;;;;;;;3.75;0.70;;;;;;;6.91;100.00;100034.03;5026881;28;20053;-64
2023/01/08 05:33:14;;;;;;;4.97;0.98;;;;;;;6.95;100.00;100028.19;5026901;28;20276;-64
2023/01/08 05:35:39;;;;;;;2.97;0.68;;;;;;;6.94;100.00;100021.28;5027039;28;20381;-64
2023/01/08 05:38:05;;;;;;;7.80;0.82;;;;;;;6.94;100.00;100021.28;5027514;28;20045;-64
2023/01/08 05:40:30;;;;;;;4.05;1.42;;;;;;;6.92;100.00;100013.53;5027470;28;20411;-64
2023/01/08 05:42:58;;;;;;;4.65;0.88;;;;;;;6.97;100.00;100005.94;5026856;28;20446;-64
2023/01/08 05:45:23;;;;;;;3.40;1.35;;;;;;;6.96;100.00;100015.34;5027490;28;20512;-64
2023/01/08 05:47:49;;;;;;;2.42;1.00;;;;;;;6.94;100.00;100013.56;5027127;28;20037;-64
2023/01/08 05:50:14;;;;;;;4.88;0.85;;;;;;;6.91;100.00;100011.75;5026998;28;20099;-64
2023/01/08 05:52:39;;;;;;;4.38;1.00;;;;;;;6.89;100.00;100010.81;5026785;28;20092;-63
2023/01/08 05:55:05;;;;;;;5.07;1.00;;;;;;;6.86;100.00;100013.31;5026440;28;20044;-64
2023/01/08 05:57:30;;;;;;;5.65;0.90;;;;;;;6.85;100.00;100011.56;5026778;28;20042;-64
2023/01/08 05:59:55;;;;;;;1.48;0.95;;;;;;;6.84;100.00;100014.94;5026920;28;20120;-64
2023/01/08 06:02:21;;;;;;;4.65;0.82;;;;;;;6.82;100.00;100021.72;5025387;28;20025;-64
2023/01/08 06:04:46;;;;;;;4.22;0.73;;;;;;;6.78;100.00;100023.31;5026994;28;20413;-64
2023/01/08 06:07:11;;;;;;;3.88;1.00;;;;;;;6.76;100.00;100030.16;5026428;28;20025;-64
2023/01/08 06:09:36;;;;;;;3.30;0.75;;;;;;;6.73;100.00;100028.31;5026966;28;20033;-64
2023/01/08 06:12:02;;;;;;;4.45;1.17;;;;;;;6.69;100.00;100034.19;5027003;28;20044;-64
2023/01/08 06:14:27;;;;;;;3.95;0.98;;;;;;;6.66;100.00;100036.66;5026670;28;20029;-64
2023/01/08 06:16:53;;;;;;;4.85;0.82;;;;;;;6.60;100.00;100044.19;5026630;28;20032;-64
2023/01/08 06:19:18;;;;;;;2.65;0.60;;;;;;;6.57;100.00;100046.63;5026852;28;20128;-64
2023/01/08 06:21:44;;;;;;;3.80;0.80;;;;;;;6.54;100.00;100042.25;5030759;28;20036;-64
2023/01/08 06:24:09;;;;;;;4.80;0.68;;;;;;;6.51;100.00;100041.28;5030759;28;20099;-64
2023/01/08 06:26:34;;;;;;;2.45;0.63;;;;;;;6.47;100.00;100051.47;5030208;28;20056;-64
2023/01/08 06:29:00;;;;;;;2.47;0.75;;;;;;;6.42;100.00;100042.69;5030558;28;20026;-64
2023/01/08 06:31:25;;;;;;;3.85;1.08;;;;;;;6.39;100.00;100047.72;5030462;28;20025;-64
2023/01/08 06:33:50;;;;;;;6.03;1.10;;;;;;;6.35;100.00;100048.44;5030036;28;20431;-63
2023/01/08 06:36:15;;;;;;;5.28;1.17;;;;;;;6.32;100.00;100058.59;5030204;28;20116;-63
2023/01/08 06:38:41;;;;;;;7.65;1.27;;;;;;;6.29;100.00;100056.81;5030278;28;20064;-63
2023/01/08 06:41:09;;;;;;;5.57;0.80;;;;;;;6.30;100.00;100057.66;5030238;28;20055;-63
2023/01/08 06:43:34;;;;;;;4.43;1.10;;;;;;;6.26;100.00;100061.81;5029667;28;20736;-64
2023/01/08 06:46:00;;;;;;;4.22;0.90;;;;;;;6.23;100.00;100062.59;5029998;28;20033;-64
2023/01/08 06:48:25;;;;;;;4.95;1.02;;;;;;;6.18;100.00;100069.28;5030105;28;20021;-64
2023/01/08 06:50:51;;;;;;;3.88;0.75;;;;;;;6.18;100.00;100068.41;5030170;28;20381;-63
2023/01/08 06:53:17;;;;;;;5.30;1.20;;;;;;;6.15;100.00;100078.56;5030041;28;20045;-64
2023/01/08 06:55:42;;;;;;;4.32;1.13;;;;;;;6.10;100.00;100073.25;5030014;28;20284;-63
2023/01/08 06:58:09;;;;;;;2.10;0.75;;;;;;;6.09;100.00;100074.06;5029942;28;20064;-64
2023/01/08 07:00:34;;;;;;;3.85;1.30;;;;;;;6.05;100.00;100069.59;5029992;28;20025;-64
2023/01/08 07:02:59;;;;;;;5.45;1.48;;;;;;;6.01;100.00;100071.16;5029931;28;20079;-64
2023/01/08 07:05:25;;;;;;;7.22;1.50;;;;;;;6.01;100.00;100071.16;5029273;28;20091;-64
2023/01/08 07:07:50;;;;;;;5.55;1.35;;;;;;;5.99;100.00;100068.53;5029870;28;20040;-64
2023/01/08 07:10:16;;;;;;;5.10;1.27;;;;;;;5.96;100.00;100070.09;5030068;28;20021;-64
2023/01/08 07:12:41;;;;;;;3.45;1.80;;;;;;;5.93;100.00;100068.31;5029342;28;20033;-64
2023/01/08 07:15:07;;;;;;;3.80;0.98;;;;;;;5.88;100.00;100065.53;5029660;28;20017;-64
2023/01/08 07:17:32;;;;;;;4.90;1.48;;;;;;;5.91;100.00;100069.94;5029565;28;20013;-64
2023/01/08 07:19:58;;;;;;;5.40;1.23;;;;;;;5.88;100.00;100064.69;5029483;28;20056;-64
2023/01/08 07:22:24;;;;;;;12.18;2.58;;;;;;;5.86;100.00;100050.88;5029271;28;20405;-64
2023/01/08 07:24:50;;;;;;;3.65;0.85;;;;;;;5.88;100.00;100051.84;5029558;28;20036;-64
2023/01/08 07:27:15;;;;;;;7.47;1.45;;;;;;;5.85;100.00;100054.25;5028217;28;20029;-64
2023/01/08 07:29:40;;;;;;;9.73;2.13;;;;;;;5.83;100.00;100055.94;5027516;28;20405;-64
2023/01/08 07:32:06;;;;;;;5.10;1.27;;;;;;;5.79;100.00;100054.94;5026635;28;20037;-64
2023/01/08 07:34:33;;;;;;;6.97;1.33;;;;;;;5.77;100.00;100056.56;5027495;28;20397;-64
2023/01/08 07:36:58;;;;;;;7.53;1.75;;;;;;;5.76;100.00;100058.25;5027493;28;20033;-64
2023/01/08 07:39:24;;;;;;;12.07;1.98;;;;;;;5.72;100.00;100063.22;5028039;28;20111;-63
2023/01/08 07:41:49;;;;;;;7.97;1.27;;;;;;;5.72;100.00;100053.78;5027307;28;20075;-64
2023/01/08 07:44:14;;;;;;;5.45;1.42;;;;;;;5.69;100.00;100063.06;5028243;28;20040;-63
2023/01/08 07:46:40;;;;;;;7.72;1.23;;;;;;;5.66;100.00;100058.69;5028247;28;20116;-63
2023/01/08 07:49:05;;;;;;;6.25;1.15;;;;;;;5.63;100.00;100049.16;5028510;28;20037;-63
2023/01/08 07:51:30;;;;;;;7.75;1.90;;;;;;;5.61;100.00;100052.50;5029322;28;20033;-64
2023/01/08 07:53:56;;;;;;;7.72;1.92;;;;;;;5.57;100.00;100053.19;5028724;28;20057;-63
2023/01/08 07:56:22;;;;;;;6.45;1.40;;;;;;;5.55;100.00;100052.25;5029071;28;20049;-63
2023/01/08 07:58:47;;;;;;;7.82;1.35;;;;;;;5.55;100.00;100054.81;5028709;28;20029;-63
2023/01/08 08:01:13;;;;;;;7.13;2.42;;;;;;;5.50;100.00;100058.09;5029090;28;20037;-64
2023/01/08 08:03:38;;;;;;;8.90;1.37;;;;;;;5.51;100.00;100048.69;5028892;28;20172;-63
2023/01/08 08:06:04;;;;;;;6.07;1.97;;;;;;;5.50;100.00;100047.81;5028699;28;20030;-64
2023/01/08 08:08:29;;;;;;;4.97;1.00;;;;;;;5.48;100.00;100054.59;5028780;28;20033;-63
2023/01/08 08:10:54;;;;;;;8.53;1.60;;;;;;;5.49;100.00;100047.72;5028470;28;20025;-64
2023/01/08 08:13:20;;;;;;;3.88;1.23;;;;;;;5.46;100.00;100030.50;5028756;28;20041;-64
2023/01/08 08:15:45;;;;;;;5.55;1.17;;;;;;;5.49;100.00;100030.63;5028477;28;20036;-64
2023/01/08 08:18:10;;;;;;;5.00;1.15;;;;;;;5.51;100.00;100028.13;5028727;28;20029;-63
2023/01/08 08:20:36;;;;;;;7.53;1.20;;;;;;;5.52;100.00;100017.88;5028063;28;20018;-63
2023/01/08 08:23:03;;;;;;;4.72;1.05;;;;;;;5.56;100.00;100015.47;5028868;28;20227;-63
2023/01/08 08:25:28;;;;;;;7.15;1.20;;;;;;;5.58;100.00;100014.69;5028384;28;20114;-64
2023/01/08 08:27:57;;;;;;;3.38;1.08;;;;;;;5.65;100.00;100020.94;5028396;28;20037;-63
2023/01/08 08:30:22;;;;;;;7.93;1.40;;;;;;;5.69;100.00;100012.53;5028215;28;20028;-64
2023/01/08 08:32:47;;;;;;;5.07;1.20;;;;;;;5.76;100.00;100014.53;5028759;28;20025;-64
2023/01/08 08:35:12;;;;;;;3.67;0.85;;;;;;;5.82;100.00;100019.03;5028598;28;20492;-63
2023/01/08 08:37:38;;;;;;;5.35;1.05;;;;;;;5.82;100.00;100020.72;5028817;28;20033;-64
2023/01/08 08:40:04;;;;;;;4.10;1.35;;;;;;;5.90;100.00;100021.88;5028173;28;20079;-63
2023/01/08 08:42:29;;;;;;;8.10;1.40;;;;;;;5.94;100.00;100017.72;5027548;28;20369;-64
2023/01/08 08:44:54;;;;;;;9.13;2.15;;;;;;;5.94;100.00;100013.47;5028034;28;20021;-64
2023/01/08 08:47:19;;;;;;;6.50;1.65;;;;;;;5.95;100.00;100020.38;5028231;28;20024;-63
2023/01/08 08:49:45;;;;;;;4.88;1.08;;;;;;;6.02;100.00;100016.34;5027563;28;20022;-63
2023/01/08 08:52:11;;;;;;;7.53;1.20;;;;;;;6.10;100.00;100019.22;5028077;28;20140;-63
2023/01/08 08:54:40;;;;;;;5.60;1.30;;;;;;;6.19;100.00;100006.69;5027522;28;20042;-64
2023/01/08 08:57:05;;;;;;;3.63;1.00;;;;;;;6.27;100.00;100008.69;5027954;28;20028;-63
2023/01/08 08:59:31;;;;;;;3.25;0.80;;;;;;;6.35;100.00;100000.41;5027297;28;20477;-64
2023/01/08 09:01:56;;;;;;;4.30;1.30;;;;;;;6.39;100.00;99996.25;5027800;28;20096;-63
2023/01/08 09:04:21;;;;;;;7.57;1.98;;;;;;;6.31;100.00;100002.81;5027792;28;20021;-63
2023/01/08 09:06:46;;;;;;;4.68;0.93;;;;;;;6.27;100.00;99991.56;5028218;28;20470;-63
2023/01/08 09:09:13;;;;;;;6.93;1.20;;;;;;;6.19;100.00;99993.84;5028425;28;20041;-63
2023/01/08 09:11:39;;;;;;;5.38;1.63;;;;;;;6.11;100.00;99985.84;5027550;28;20108;-63
2023/01/08 09:14:04;;;;;;;8.25;2.03;;;;;;;6.08;100.00;99997.72;5027838;28;20117;-63
2023/01/08 09:16:29;;;;;;;4.97;1.13;;;;;;;6.06;100.00;99992.50;5027628;28;20367;-63
2023/01/08 09:18:55;;;;;;;4.57;1.10;;;;;;;6.00;100.00;99993.13;5027694;28;20033;-64
2023/01/08 09:21:20;;;;;;;7.00;1.75;;;;;;;5.97;100.00;99993.00;5027760;28;20029;-63
2023/01/08 09:23:47;;;;;;;5.15;1.38;;;;;;;5.97;100.00;99993.00;5027201;28;20029;-64
2023/01/08 09:26:12;;;;;;;8.80;1.92;;;;;;;5.97;100.00;99995.56;5027028;28;20029;-63
2023/01/08 09:28:38;;;;;;;4.00;1.00;;;;;;;5.97;100.00;99994.72;5027540;28;20055;-63
2023/01/08 09:31:03;;;;;;;6.18;1.17;;;;;;;5.96;100.00;99986.13;5027282;28;20053;-64
2023/01/08 09:33:30;;;;;;;6.28;1.52;;;;;;;5.98;100.00;99994.78;5027313;28;20553;-64
2023/01/08 09:35:55;;;;;;;8.98;1.92;;;;;;;5.95;100.00;99984.38;5027303;28;20405;-63
2023/01/08 09:38:20;;;;;;;8.20;1.55;;;;;;;5.98;100.00;99987.06;5026911;28;20045;-64
2023/01/08 09:41:06;;;;;;;7.18;2.10;;;;;;;5.97;100.00;99987.00;5027168;28;20033;-63
2023/01/08 09:43:35;;;;;;;7.13;1.58;;;;;;;5.99;100.00;99978.50;5027575;28;20059;-63
2023/01/08 09:46:04;;;;;;;4.93;1.80;;;;;;;6.03;100.00;99970.94;5027244;28;20033;-63
2023/01/08 09:48:38;;;;;;;9.00;1.80;;;;;;;6.07;100.00;99976.25;5027214;28;20033;-63
2023/01/08 09:51:08;;;;;;;6.68;1.40;;;;;;;6.08;100.00;99975.44;5027238;28;20026;-63
2023/01/08 09:53:34;;;;;;;3.27;1.23;;;;;;;6.10;100.00;99981.50;5027254;28;20330;-64
2023/01/08 09:56:02;;;;;;;5.65;1.25;;;;;;;6.13;100.00;99973.03;5029979;28;20021;-64
2023/01/08 09:58:53;;;;;;;5.85;1.35;;;;;;;6.17;100.00;99974.03;5031476;28;20022;-64
2023/01/08 10:01:21;;;;;;;5.63;1.40;;;;;;;6.21;100.00;99966.47;5031171;28;20222;-63
2023/01/08 10:03:56;;;;;;;6.95;1.90;;;;;;;6.23;100.00;99961.38;5031101;28;20477;-64
2023/01/08 10:06:22;;;;;;;8.48;2.00;;;;;;;6.24;100.00;99966.56;5031167;28;20041;-64
2023/01/08 10:08:49;;;;;;;6.78;1.92;;;;;;;6.28;100.00;99975.28;5031083;28;20028;-64
2023/01/08 10:11:15;;;;;;;10.00;2.05;;;;;;;6.28;100.00;99964.97;5030744;28;20474;-64
2023/01/08 10:13:45;;;;;;;4.38;1.55;;;;;;;6.32;100.00;99964.28;5030862;28;20076;-63
2023/01/08 10:16:20;;;;;;;11.50;2.10;;;;;;;6.35;100.00;99953.22;5030683;28;20026;-64
2023/01/08 10:18:46;;;;;;;5.13;1.15;;;;;;;6.41;100.00;99952.53;5030968;28;20033;-64
2023/01/08 10:21:13;;;;;;;4.55;0.88;;;;;;;6.43;100.00;99946.63;5029284;28;20048;-63
2023/01/08 10:23:48;;;;;;;4.93;1.10;;;;;;;6.48;100.00;99947.69;5030603;28;20041;-63
2023/01/08 10:26:28;;;;;;;6.40;0.95;;;;;;;6.48;100.00;99950.25;5030631;28;20461;-63
2023/01/08 10:29:06;;;;;;;3.00;0.90;;;;;;;6.57;100.00;99943.66;5030234;28;20469;-64
2023/01/08 10:31:31;;;;;;;3.42;1.10;;;;;;;6.63;100.00;99937.84;5029751;28;20112;-63
2023/01/08 10:34:06;;;;;;;3.50;0.90;;;;;;;6.72;100.00;99938.16;5031243;28;20560;-64
2023/01/08 10:36:39;;;;;;;4.20;1.00;;;;;;;6.73;100.00;99935.63;5030469;28;20035;-64
2023/01/08 10:39:04;;;;;;;2.00;0.77;;;;;;;6.75;100.00;99943.41;5030351;28;20029;-64
2023/01/08 10:41:35;;;;;;;3.22;0.70;;;;;;;6.79;100.00;99931.50;5030468;28;20454;-64
2023/01/08 10:44:04;;;;;;;1.63;1.20;;;;;;;6.84;100.00;99938.56;5030688;28;20095;-63
2023/01/08 10:46:41;;;;;;;4.90;1.30;;;;;;;6.87;100.00;99924.94;5030184;28;20021;-63
2023/01/08 10:49:16;;;;;;;3.85;1.50;;;;;;;6.86;100.00;99918.00;5029916;28;20029;-64
2023/01/08 10:51:49;;;;;;;5.53;1.48;;;;;;;6.91;100.00;99915.56;5029950;28;20116;-63
2023/01/08 10:54:29;;;;;;;2.88;0.80;;;;;;;7.04;100.00;99914.25;5029591;28;20414;-64
2023/01/08 10:56:54;;;;;;;1.88;0.60;;;;;;;7.16;100.00;99908.63;5029840;28;20083;-63
2023/01/08 10:59:21;;;;;;;2.00;0.50;;;;;;;7.27;100.00;99903.78;5029845;28;20026;-64
2023/01/08 11:01:49;;;;;;;2.15;0.68;;;;;;;7.36;100.00;99893.75;5030187;28;20025;-64
2023/01/08 11:04:22;;;;;;;2.55;0.70;;;;;;;7.48;100.00;99889.81;5030083;28;20041;-64
2023/01/08 11:06:47;;;;;;;1.83;0.40;;;;;;;7.57;100.00;99893.53;5029048;28;20034;-64
2023/01/08 11:09:22;;;;;;;0.57;0.47;;;;;;;7.66;100.00;99886.91;5030078;28;20059;-64
2023/01/08 11:11:48;;;;;;;2.60;1.17;;;;;;;7.72;100.00;99886.22;5030053;28;20026;-64
2023/01/08 11:14:25;;;;;;;1.55;0.63;;;;;;;7.77;100.00;99877.75;5029638;28;20033;-64
2023/01/08 11:16:51;;;;;;;1.95;0.32;;;;;;;7.86;100.00;99884.88;5029589;28;20252;-63
2023/01/08 11:19:31;;;;;;;0.73;0.40;;;;;;;7.92;100.00;99867.00;5028918;28;20053;-64
2023/01/08 11:21:59;;;;;;;2.13;0.50;;;;;;;7.98;100.00;99867.97;5029599;28;20373;-63
2023/01/08 11:24:31;;;;;;;0.63;0.40;;;;;;;8.04;100.00;99858.69;5029773;28;20025;-64
2023/01/08 11:27:36;;;;;;;2.28;0.60;;;;;;;8.14;100.00;99861.53;5029312;28;20021;-63
2023/01/08 11:30:04;;;;;;;0.60;0.30;;;;;;;8.25;100.00;99846.31;4979730;28;20109;-63